Time;durP1;ratioP1;P1;durP2;ratioP2;P2;SDS_P1;SDS_P2;PMS_P1;PMS_P2;Temp;Humidity;BMP_temperature;BMP_pressure;BME280_temperature;BME280_humidity;BME280_pressure;Samples;Min_cycle;Max_cycle;Signal;HPM_P1;HPM_P2
2022/06/27 00:03:47;;;;;;;5.50;4.30;;;26.80;57.50;;;;;;220272;1268;24143;-52
2022/06/27 00:08:50;;;;;;;13.10;6.50;;;26.80;57.40;;;;;;220349;1268;23680;-49
2022/06/27 00:13:53;;;;;;;6.70;4.80;;;26.80;57.40;;;;;;226496;1271;24288;-50
2022/06/27 00:18:55;;;;;;;6.50;4.60;;;26.80;57.40;;;;;;220390;1268;22714;-50
2022/06/27 00:23:57;;;;;;;5.20;4.10;;;26.80;57.10;;;;;;220150;1268;22636;-49
2022/06/27 00:28:59;;;;;;;5.10;3.80;;;26.80;57.20;;;;;;220575;1268;22544;-51
2022/06/27 00:34:02;;;;;;;5.90;4.00;;;26.80;57.40;;;;;;220466;1267;24250;-50
2022/06/27 00:39:05;;;;;;;11.50;4.00;;;26.80;57.00;;;;;;220852;1268;22995;-47
2022/06/27 00:44:07;;;;;;;4.40;3.60;;;26.80;57.00;;;;;;220675;1268;22607;-50
2022/06/27 00:49:10;;;;;;;5.50;4.20;;;26.80;57.50;;;;;;220641;1268;24285;-49
2022/06/27 00:54:12;;;;;;;5.70;3.80;;;26.80;57.10;;;;;;220831;1268;22561;-49
2022/06/27 00:59:14;;;;;;;6.00;4.00;;;26.80;57.30;;;;;;220638;1268;23946;-49
2022/06/27 01:04:17;;;;;;;5.40;3.90;;;26.80;57.60;;;;;;220529;1268;22610;-51
2022/06/27 01:09:20;;;;;;;4.80;3.70;;;26.80;57.30;;;;;;220660;1268;25305;-48
2022/06/27 01:14:23;;;;;;;5.30;4.00;;;26.80;57.60;;;;;;220740;1268;24578;-49
2022/06/27 01:19:26;;;;;;;5.90;4.50;;;26.70;57.30;;;;;;220557;1268;358301;-51
2022/06/27 01:24:28;;;;;;;4.80;4.00;;;26.70;57.00;;;;;;220750;1268;22618;-50
2022/06/27 01:29:33;;;;;;;5.30;4.20;;;26.70;56.90;;;;;;220891;1267;25502;-50
2022/06/27 01:34:36;;;;;;;5.10;3.90;;;26.70;57.10;;;;;;220003;1267;22563;-53
2022/06/27 01:39:39;;;;;;;6.50;3.90;;;26.70;57.00;;;;;;220424;1268;22541;-51
2022/06/27 01:44:45;;;;;;;6.80;4.80;;;26.70;56.80;;;;;;220526;1268;25315;-49
2022/06/27 01:49:51;;;;;;;7.10;4.20;;;26.70;57.20;;;;;;220117;1268;22554;-49
2022/06/27 01:54:57;;;;;;;6.30;4.30;;;26.70;56.60;;;;;;220190;1268;24259;-51
2022/06/27 02:00:05;;;;;;;5.60;4.30;;;26.70;56.40;;;;;;220253;1268;22563;-52
2022/06/27 02:05:28;;;;;;;6.10;4.30;;;26.70;56.50;;;;;;220476;1268;24208;-50
2022/06/27 02:10:30;;;;;;;5.80;4.20;;;26.70;56.40;;;;;;220580;1268;24250;-51
2022/06/27 02:15:33;;;;;;;4.80;4.00;;;26.70;56.40;;;;;;220202;1268;22704;-50
2022/06/27 02:20:35;;;;;;;6.20;4.30;;;26.70;56.50;;;;;;220516;1270;23912;-50
2022/06/27 02:25:39;;;;;;;4.30;3.90;;;26.70;56.70;;;;;;220448;1268;24246;-51
2022/06/27 02:30:41;;;;;;;6.40;3.90;;;26.70;56.50;;;;;;220579;1268;22557;-48
2022/06/27 02:35:45;;;;;;;7.00;4.10;;;26.70;56.50;;;;;;220506;1268;24661;-51
2022/06/27 02:40:50;;;;;;;6.20;4.30;;;26.70;56.40;;;;;;220277;1268;22574;-49
2022/06/27 02:45:54;;;;;;;6.20;4.60;;;26.70;56.40;;;;;;220521;1268;24064;-49
2022/06/27 02:51:09;;;;;;;7.50;4.70;;;26.70;56.70;;;;;;220472;1267;24253;-51
2022/06/27 02:56:18;;;;;;;7.20;4.70;;;26.60;56.30;;;;;;220521;1268;24063;-53
2022/06/27 03:01:22;;;;;;;4.80;4.00;;;26.60;56.60;;;;;;220351;1268;26689;-49
2022/06/27 03:06:26;;;;;;;6.50;3.90;;;26.60;56.60;;;;;;220494;1267;22538;-49
2022/06/27 03:11:29;;;;;;;8.60;4.60;;;26.70;56.40;;;;;;220375;1270;24212;-49
2022/06/27 03:16:31;;;;;;;7.20;4.70;;;26.60;56.20;;;;;;220585;1268;24753;-50
2022/06/27 03:21:36;;;;;;;6.90;4.50;;;26.60;56.30;;;;;;220335;1268;24768;-48
2022/06/27 03:26:39;;;;;;;7.90;4.90;;;26.60;56.30;;;;;;220390;1268;22555;-49
2022/06/27 03:31:42;;;;;;;7.50;4.70;;;26.60;56.30;;;;;;220468;1268;22567;-51
2022/06/27 03:36:48;;;;;;;9.10;4.80;;;26.60;56.20;;;;;;220455;1267;22532;-54
2022/06/27 03:41:51;;;;;;;6.10;4.40;;;26.60;56.30;;;;;;220711;1268;27544;-48
2022/06/27 03:46:54;;;;;;;5.70;4.70;;;26.60;56.20;;;;;;220860;1267;22687;-51
2022/06/27 03:52:02;;;;;;;6.20;4.60;;;26.60;56.30;;;;;;220277;1268;22683;-50
2022/06/27 03:57:05;;;;;;;10.10;5.10;;;26.60;56.30;;;;;;220015;1268;22629;-51
2022/06/27 04:02:09;;;;;;;8.70;5.00;;;26.60;56.10;;;;;;220120;1268;22595;-49
2022/06/27 04:07:28;;;;;;;7.50;4.60;;;26.60;56.20;;;;;;221705;1265;22674;-53
2022/06/27 04:12:33;;;;;;;8.40;5.30;;;26.60;56.20;;;;;;221508;1265;24385;-51
2022/06/27 04:18:14;;;;;;;4.90;4.20;;;26.60;55.90;;;;;;219328;1271;25254;-50
2022/06/27 04:23:35;;;;;;;10.20;5.40;;;26.60;55.80;;;;;;220298;1268;24361;-52
2022/06/27 04:28:51;;;;;;;9.50;4.90;;;26.60;55.70;;;;;;220492;1268;22697;-52
2022/06/27 04:33:57;;;;;;;7.30;5.00;;;26.60;55.70;;;;;;220502;1268;24274;-53
2022/06/27 04:39:00;;;;;;;7.60;4.80;;;26.60;55.80;;;;;;220069;1268;22811;-53
2022/06/27 04:44:25;;;;;;;8.90;4.50;;;26.60;56.10;;;;;;220675;1265;24306;-53
2022/06/27 04:49:28;;;;;;;8.50;5.10;;;26.60;55.90;;;;;;220316;1268;22558;-52
2022/06/27 04:54:35;;;;;;;7.90;4.20;;;26.70;56.00;;;;;;220190;1269;24131;-51
2022/06/27 04:59:38;;;;;;;8.20;5.00;;;26.70;56.10;;;;;;220413;1268;24243;-54
2022/06/27 05:04:57;;;;;;;8.10;4.80;;;26.70;56.20;;;;;;220250;1268;24219;-54
2022/06/27 05:10:00;;;;;;;8.20;4.30;;;26.70;56.20;;;;;;220491;1269;22565;-50
2022/06/27 05:15:04;;;;;;;5.20;4.20;;;26.70;56.30;;;;;;220358;1268;24217;-51
2022/06/27 05:20:07;;;;;;;6.60;4.20;;;26.70;56.40;;;;;;220412;1268;24145;-51
2022/06/27 05:25:10;;;;;;;8.20;5.20;;;26.70;56.40;;;;;;220979;1268;24423;-53
2022/06/27 05:30:13;;;;;;;10.60;5.60;;;26.70;56.80;;;;;;220783;1268;24487;-53
2022/06/27 05:35:22;;;;;;;9.30;4.50;;;26.80;56.60;;;;;;220502;1268;24192;-50
2022/06/27 05:40:25;;;;;;;10.10;5.20;;;26.80;57.00;;;;;;220682;1268;22649;-49
2022/06/27 05:45:27;;;;;;;11.20;5.10;;;26.70;56.10;;;;;;220880;1268;24302;-50
2022/06/27 05:50:50;;;;;;;11.70;5.30;;;26.50;56.20;;;;;;220549;1268;24279;-50
2022/06/27 05:55:53;;;;;;;16.60;5.80;;;26.50;56.10;;;;;;220537;1268;22574;-52
2022/06/27 06:00:56;;;;;;;10.20;4.80;;;26.50;56.60;;;;;;220489;1268;22704;-52
2022/06/27 06:06:00;;;;;;;9.10;5.10;;;26.50;56.50;;;;;;220310;1268;22543;-48
2022/06/27 06:11:03;;;;;;;10.90;5.90;;;26.50;56.20;;;;;;220669;1268;24275;-54
2022/06/27 06:16:06;;;;;;;10.10;5.10;;;26.50;56.20;;;;;;220530;1268;24239;-54
2022/06/27 06:21:13;;;;;;;16.70;5.40;;;26.60;56.90;;;;;;220351;1270;23130;-52
2022/06/27 06:26:17;;;;;;;18.20;5.50;;;26.60;56.80;;;;;;220422;1268;24777;-50
2022/06/27 06:31:22;;;;;;;15.20;5.30;;;26.80;57.00;;;;;;220432;1268;22556;-47
2022/06/27 06:36:35;;;;;;;14.60;5.70;;;26.90;56.50;;;;;;220616;1268;24234;-49
2022/06/27 06:41:39;;;;;;;11.50;5.00;;;26.90;56.50;;;;;;220189;1268;25280;-47
2022/06/27 06:46:42;;;;;;;14.70;5.10;;;26.90;56.30;;;;;;220399;1268;22570;-52
2022/06/27 06:51:50;;;;;;;11.20;4.90;;;26.90;56.50;;;;;;220369;1268;24243;-56
2022/06/27 06:56:52;;;;;;;9.40;4.90;;;26.90;56.50;;;;;;220480;1268;22806;-58
2022/06/27 07:01:55;;;;;;;17.00;5.60;;;26.90;56.50;;;;;;220592;1268;22554;-56
2022/06/27 07:07:00;;;;;;;9.80;5.00;;;26.90;56.00;;;;;;220419;1268;22573;-57
2022/06/27 07:12:10;;;;;;;9.70;5.10;;;26.90;56.60;;;;;;220026;1268;24215;-57
2022/06/27 07:17:12;;;;;;;11.90;5.40;;;26.90;56.50;;;;;;219960;1267;24230;-58
2022/06/27 07:22:20;;;;;;;15.60;5.10;;;26.90;56.60;;;;;;220527;1268;25251;-57
2022/06/27 07:27:29;;;;;;;16.40;6.00;;;26.90;56.80;;;;;;220858;1268;22539;-58
2022/06/27 07:32:31;;;;;;;10.70;5.30;;;27.00;56.90;;;;;;220587;1268;25314;-52
2022/06/27 07:37:34;;;;;;;11.70;5.20;;;27.00;57.00;;;;;;220463;1268;22829;-55
2022/06/27 07:42:37;;;;;;;11.70;4.60;;;27.10;56.60;;;;;;220574;1268;24656;-58
2022/06/27 07:47:48;;;;;;;9.60;5.00;;;27.00;56.20;;;;;;220537;1268;24237;-56
2022/06/27 07:58:33;;;;;;;10.00;4.60;;;27.10;56.70;;;;;;220650;1268;25391;-56
2022/06/27 08:03:49;;;;;;;8.40;4.10;;;27.20;55.90;;;;;;220325;1268;24237;-53
2022/06/27 08:08:57;;;;;;;5.90;4.00;;;26.80;55.00;;;;;;220678;1266;24360;-52
2022/06/27 08:14:03;;;;;;;7.20;4.80;;;26.40;53.80;;;;;;220746;1268;25226;-51
2022/06/27 08:19:07;;;;;;;8.60;4.60;;;26.20;53.30;;;;;;220442;1268;24204;-56
2022/06/27 08:24:15;;;;;;;7.60;3.70;;;26.20;52.80;;;;;;220662;1267;22551;-49
2022/06/27 08:29:17;;;;;;;7.20;3.80;;;26.20;52.10;;;;;;220516;1268;22604;-50
2022/06/27 08:34:21;;;;;;;9.40;3.90;;;26.10;52.00;;;;;;220032;1268;24347;-48
2022/06/27 08:39:24;;;;;;;6.30;4.00;;;25.90;51.60;;;;;;220454;1268;24887;-52
2022/06/27 08:44:29;;;;;;;6.50;4.20;;;26.00;51.90;;;;;;220066;1268;22642;-52
2022/06/27 08:49:37;;;;;;;;;;;26.00;52.10;;;;;;220469;1268;25318;-54
2022/06/27 08:54:45;;;;;;;6.20;4.10;;;26.30;52.50;;;;;;220295;1268;24541;-55
2022/06/27 08:59:53;;;;;;;5.40;3.90;;;26.50;52.90;;;;;;220614;1268;23946;-57
2022/06/27 09:04:59;;;;;;;5.00;3.40;;;26.80;52.70;;;;;;220571;1268;23003;-56
2022/06/27 09:10:25;;;;;;;5.00;3.50;;;26.90;51.80;;;;;;220996;1268;25306;-55
2022/06/27 09:15:48;;;;;;;5.90;4.00;;;27.10;51.20;;;;;;220566;1268;24387;-57
2022/06/27 09:20:59;;;;;;;5.90;3.70;;;27.20;50.60;;;;;;219862;1268;22833;-55
2022/06/27 09:26:08;;;;;;;6.80;3.80;;;27.00;50.70;;;;;;220618;1268;24211;-53
2022/06/27 09:31:32;;;;;;;8.30;4.20;;;26.40;56.90;;;;;;220742;1268;22548;-50
2022/06/27 09:36:55;;;;;;;4.70;3.30;;;26.40;58.30;;;;;;220292;1268;24345;-49
2022/06/27 09:41:59;;;;;;;6.40;4.30;;;26.00;59.80;;;;;;220435;1268;22545;-50
2022/06/27 09:47:15;;;;;;;9.20;4.10;;;26.10;58.80;;;;;;220238;1268;22580;-50
2022/06/27 09:52:27;;;;;;;5.90;3.70;;;26.00;61.90;;;;;;220488;1268;26371;-51
2022/06/27 09:57:30;;;;;;;6.20;3.80;;;25.90;57.60;;;;;;220311;1268;22526;-52
2022/06/27 10:02:32;;;;;;;4.50;3.50;;;26.00;62.50;;;;;;220340;1266;24208;-53
2022/06/27 10:07:35;;;;;;;5.00;3.40;;;25.80;61.00;;;;;;220921;1267;22544;-53
2022/06/27 10:12:37;;;;;;;5.50;4.40;;;26.00;61.90;;;;;;220426;1268;24523;-52
2022/06/27 10:17:44;;;;;;;6.60;3.90;;;25.90;61.60;;;;;;220653;1268;22566;-49
2022/06/27 10:23:11;;;;;;;5.90;3.70;;;25.90;59.30;;;;;;220552;1268;25358;-48
2022/06/27 10:28:16;;;;;;;6.60;3.90;;;25.90;62.80;;;;;;220681;1268;24195;-49
2022/06/27 10:33:18;;;;;;;6.50;4.10;;;26.00;58.90;;;;;;220572;1268;25345;-50
2022/06/27 10:38:24;;;;;;;6.20;4.20;;;26.40;54.70;;;;;;220672;1268;24219;-53
2022/06/27 10:43:35;;;;;;;5.40;4.30;;;26.00;52.90;;;;;;221136;1268;22771;-52
2022/06/27 10:48:42;;;;;;;6.90;4.20;;;25.80;56.20;;;;;;220693;1268;24215;-49
2022/06/27 10:53:48;;;;;;;6.40;4.30;;;25.80;59.20;;;;;;220370;1268;25414;-47
2022/06/27 10:58:51;;;;;;;6.10;4.30;;;26.00;61.20;;;;;;220676;1267;23077;-49
2022/06/27 11:04:00;;;;;;;7.30;4.20;;;25.70;60.70;;;;;;220697;1268;22544;-49
2022/06/27 11:09:04;;;;;;;6.40;4.00;;;25.90;59.10;;;;;;220814;1268;22550;-50
2022/06/27 11:14:08;;;;;;;6.40;3.90;;;25.80;61.90;;;;;;220946;1268;22797;-47
2022/06/27 11:24:45;;;;;;;7.20;4.50;;;25.80;61.90;;;;;;220506;1267;24306;-52
2022/06/27 11:35:12;;;;;;;5.40;4.20;;;25.80;58.50;;;;;;220356;1267;22677;-50
2022/06/27 11:40:15;;;;;;;6.20;4.10;;;25.70;61.90;;;;;;220917;1268;26647;-53
2022/06/27 11:45:17;;;;;;;5.20;4.20;;;25.70;61.80;;;;;;220549;1268;22575;-51
2022/06/27 11:50:21;;;;;;;4.50;3.90;;;25.80;59.40;;;;;;220651;1265;22547;-50
2022/06/27 11:55:25;;;;;;;6.00;3.70;;;25.70;62.20;;;;;;220841;1266;24455;-49
2022/06/27 12:00:31;;;;;;;7.10;4.70;;;25.60;58.30;;;;;;220877;1265;24258;-54
2022/06/27 12:05:35;;;;;;;7.90;4.10;;;25.90;60.20;;;;;;220441;1265;23028;-49
2022/06/27 12:10:37;;;;;;;5.50;4.00;;;26.00;60.40;;;;;;220633;1268;25244;-50
2022/06/27 12:15:45;;;;;;;7.80;4.10;;;25.70;57.40;;;;;;221029;1268;24220;-50
2022/06/27 12:20:49;;;;;;;9.00;4.30;;;25.90;60.80;;;;;;220839;1268;24276;-51
2022/06/27 12:25:53;;;;;;;4.40;3.80;;;25.70;61.30;;;;;;220825;1268;26612;-50
2022/06/27 12:30:58;;;;;;;4.60;3.90;;;25.70;58.00;;;;;;220762;1265;24265;-48
2022/06/27 12:36:14;;;;;;;9.50;4.70;;;25.80;61.70;;;;;;220621;1267;22710;-50
2022/06/27 12:41:17;;;;;;;6.70;4.30;;;25.70;60.10;;;;;;221025;1265;22571;-50
2022/06/27 12:46:20;;;;;;;5.70;4.60;;;26.20;57.80;;;;;;220970;1265;24317;-50
2022/06/27 12:51:27;;;;;;;8.50;4.50;;;26.00;56.40;;;;;;220831;1268;24144;-52
2022/06/27 12:56:30;;;;;;;4.00;3.60;;;26.00;60.60;;;;;;221099;1268;22560;-49
2022/06/27 13:01:33;;;;;;;5.40;4.10;;;25.80;61.00;;;;;;220879;1268;25413;-52
2022/06/27 13:06:36;;;;;;;16.30;5.30;;;25.90;61.40;;;;;;220601;1268;22701;-51
2022/06/27 13:11:41;;;;;;;11.20;5.40;;;25.90;60.40;;;;;;220854;1268;22564;-51
2022/06/27 13:16:43;;;;;;;6.80;4.50;;;26.00;60.30;;;;;;220613;1268;22607;-49
2022/06/27 13:21:46;;;;;;;8.70;4.90;;;26.00;61.20;;;;;;220053;1268;332488;-53
2022/06/27 13:26:49;;;;;;;8.00;4.90;;;26.00;62.90;;;;;;220687;1268;24236;-49
2022/06/27 13:31:54;;;;;;;10.70;5.00;;;26.00;63.50;;;;;;220873;1268;22523;-51
2022/06/27 13:36:56;;;;;;;7.40;4.20;;;26.00;63.50;;;;;;220897;1268;22698;-52
2022/06/27 13:42:03;;;;;;;5.60;3.80;;;26.00;61.70;;;;;;220562;1268;22570;-51
2022/06/27 13:47:06;;;;;;;8.40;4.60;;;26.00;60.80;;;;;;220973;1268;22545;-53
2022/06/27 13:52:10;;;;;;;8.10;4.30;;;26.20;61.50;;;;;;220821;1268;22541;-53
2022/06/27 13:57:17;;;;;;;9.60;4.80;;;26.50;61.50;;;;;;220492;1265;22542;-51
2022/06/27 14:02:26;;;;;;;9.30;4.30;;;26.70;61.40;;;;;;220605;1268;22549;-51
2022/06/27 14:07:39;;;;;;;10.60;5.10;;;26.80;61.30;;;;;;220325;1268;25249;-52
2022/06/27 14:12:43;;;;;;;7.60;4.90;;;27.00;60.10;;;;;;220441;1265;22623;-51
2022/06/27 14:17:56;;;;;;;10.10;4.80;;;27.00;60.20;;;;;;220794;1267;23915;-54
2022/06/27 14:23:01;;;;;;;7.90;4.50;;;27.10;61.30;;;;;;220761;1268;24292;-53
2022/06/27 14:28:04;;;;;;;8.70;4.80;;;27.20;61.30;;;;;;220572;1268;25643;-53
2022/06/27 14:33:06;;;;;;;6.80;4.10;;;27.20;61.30;;;;;;220370;1265;22570;-51
2022/06/27 14:38:26;;;;;;;6.00;4.10;;;27.20;61.40;;;;;;220466;1267;24208;-53
2022/06/27 14:43:33;;;;;;;7.20;4.00;;;27.30;61.40;;;;;;220030;1267;24144;-54
2022/06/27 14:48:35;;;;;;;8.40;4.60;;;27.30;61.40;;;;;;220324;1265;22566;-55
2022/06/27 14:53:39;;;;;;;7.60;4.60;;;27.30;61.50;;;;;;220207;1268;23940;-49
2022/06/27 14:58:41;;;;;;;13.60;4.70;;;27.40;62.10;;;;;;220785;1268;22705;-51
2022/06/27 15:03:44;;;;;;;13.30;4.80;;;27.40;61.80;;;;;;220182;1268;22562;-49
2022/06/27 15:09:01;;;;;;;9.10;4.10;;;27.50;61.30;;;;;;224383;1267;25336;-49
2022/06/27 15:14:08;;;;;;;10.30;4.20;;;27.50;61.70;;;;;;220828;1268;24421;-51
2022/06/27 15:19:12;;;;;;;7.00;4.20;;;27.50;61.50;;;;;;221075;1268;22701;-49
2022/06/27 15:24:15;;;;;;;8.10;4.30;;;27.50;61.40;;;;;;220607;1267;24325;-51
2022/06/27 15:29:25;;;;;;;5.40;4.00;;;27.50;61.60;;;;;;220454;1265;22768;-49
2022/06/27 15:34:27;;;;;;;6.10;3.70;;;27.50;61.60;;;;;;221081;1267;22808;-52
2022/06/27 15:39:31;;;;;;;8.40;3.90;;;27.50;61.70;;;;;;220631;1268;22594;-52
2022/06/27 15:44:42;;;;;;;4.70;4.10;;;27.50;61.60;;;;;;220540;1268;24211;-52
2022/06/27 15:49:54;;;;;;;5.00;3.50;;;27.50;61.50;;;;;;220457;1268;24276;-48
2022/06/27 15:55:07;;;;;;;4.70;4.10;;;27.50;61.60;;;;;;221073;1268;25336;-52
2022/06/27 16:00:13;;;;;;;6.00;3.80;;;27.60;61.20;;;;;;220790;1268;25474;-46
2022/06/27 16:05:20;;;;;;;4.60;3.50;;;27.60;61.80;;;;;;220981;1265;23541;-51
2022/06/27 16:10:22;;;;;;;5.20;3.60;;;27.60;61.60;;;;;;220723;1268;26472;-52
2022/06/27 16:15:25;;;;;;;4.20;3.70;;;27.60;61.50;;;;;;220531;1267;24930;-50
2022/06/27 16:20:28;;;;;;;5.00;4.10;;;27.60;61.70;;;;;;221000;1268;22560;-51
2022/06/27 16:25:35;;;;;;;5.30;3.50;;;27.60;61.70;;;;;;220525;1268;22694;-50
2022/06/27 16:36:03;;;;;;;4.80;3.60;;;27.70;62.10;;;;;;220966;1268;22593;-53
2022/06/27 16:41:08;;;;;;;4.70;3.80;;;27.70;62.00;;;;;;220588;1268;22525;-52
2022/06/27 16:46:10;;;;;;;3.90;3.40;;;27.70;62.20;;;;;;220639;1268;22573;-48
2022/06/27 16:51:17;;;;;;;4.60;3.60;;;27.70;62.20;;;;;;220822;1268;22716;-55
2022/06/27 16:56:19;;;;;;;4.40;3.80;;;27.70;62.10;;;;;;221001;1268;22556;-50
2022/06/27 17:01:21;;;;;;;7.40;3.90;;;27.70;62.10;;;;;;220561;1265;25248;-50
2022/06/27 17:06:24;;;;;;;3.90;3.30;;;27.80;62.20;;;;;;220607;1265;22697;-50
2022/06/27 17:11:26;;;;;;;5.70;3.40;;;27.80;62.30;;;;;;220671;1268;25326;-52
2022/06/27 17:16:29;;;;;;;4.10;3.60;;;27.80;61.70;;;;;;220668;1268;25419;-50
2022/06/27 17:21:31;;;;;;;4.90;3.70;;;27.80;62.40;;;;;;220657;1266;22566;-52
2022/06/27 17:26:34;;;;;;;4.40;3.40;;;27.70;61.90;;;;;;220454;1267;25293;-49
2022/06/27 17:31:37;;;;;;;4.00;3.20;;;27.80;62.40;;;;;;220407;1268;25241;-48
2022/06/27 17:36:40;;;;;;;4.20;3.40;;;27.80;62.00;;;;;;220588;1268;24212;-49
2022/06/27 17:41:43;;;;;;;4.60;3.40;;;27.80;62.00;;;;;;220465;1268;25390;-49
2022/06/27 17:46:46;;;;;;;3.80;3.10;;;27.80;61.40;;;;;;220831;1268;22544;-55
2022/06/27 17:51:49;;;;;;;4.40;3.80;;;27.80;62.00;;;;;;221055;1268;24092;-51
2022/06/27 17:56:51;;;;;;;3.80;3.40;;;27.80;62.00;;;;;;220631;1268;23914;-49
2022/06/27 18:01:55;;;;;;;4.30;3.30;;;27.80;62.20;;;;;;220683;1268;22547;-52
2022/06/27 18:07:15;;;;;;;3.90;3.30;;;27.80;61.90;;;;;;220797;1268;22535;-49
2022/06/27 18:12:17;;;;;;;3.60;3.20;;;27.80;62.00;;;;;;220916;1268;24412;-52
2022/06/27 18:17:20;;;;;;;3.90;3.30;;;27.80;61.90;;;;;;220504;1268;24281;-48
2022/06/27 18:22:23;;;;;;;3.70;3.30;;;27.80;61.90;;;;;;220617;1268;24194;-51
2022/06/27 18:27:27;;;;;;;5.80;3.80;;;27.80;61.90;;;;;;220864;1267;22570;-52
2022/06/27 18:32:32;;;;;;;4.90;3.60;;;27.80;62.00;;;;;;220898;1268;22671;-49
2022/06/27 18:37:41;;;;;;;4.00;3.60;;;27.80;61.90;;;;;;220579;1268;24246;-49
2022/06/27 18:42:53;;;;;;;4.00;3.50;;;27.80;61.80;;;;;;220530;1268;22537;-51
2022/06/27 18:47:57;;;;;;;4.20;3.00;;;27.80;61.90;;;;;;220661;1268;22536;-51
2022/06/27 18:53:04;;;;;;;4.10;3.30;;;27.80;61.90;;;;;;220585;1268;24402;-49
2022/06/27 18:58:14;;;;;;;3.30;3.00;;;27.80;61.70;;;;;;220862;1268;22656;-50
2022/06/27 19:03:25;;;;;;;4.30;3.00;;;27.80;61.60;;;;;;220855;1268;22665;-51
2022/06/27 19:08:41;;;;;;;3.20;2.60;;;27.80;61.90;;;;;;220881;1268;24476;-47
2022/06/27 19:13:46;;;;;;;3.50;3.10;;;27.80;61.60;;;;;;220685;1267;22800;-50
2022/06/27 19:19:03;;;;;;;4.30;3.50;;;27.80;61.70;;;;;;220768;1268;25362;-49
2022/06/27 19:24:24;;;;;;;3.70;3.00;;;27.80;61.80;;;;;;220792;1268;22534;-50
2022/06/27 19:29:30;;;;;;;3.90;3.10;;;27.80;62.10;;;;;;220765;1268;23150;-49
2022/06/27 19:34:33;;;;;;;4.50;2.90;;;27.80;61.60;;;;;;220778;1268;25244;-52
2022/06/27 19:39:35;;;;;;;3.30;2.80;;;27.80;61.60;;;;;;220945;1268;22614;-49
2022/06/27 19:44:38;;;;;;;4.50;3.20;;;27.80;61.70;;;;;;220452;1268;24094;-51
2022/06/27 19:49:40;;;;;;;3.20;2.90;;;27.80;61.50;;;;;;220694;1268;22688;-52
2022/06/27 19:54:42;;;;;;;6.40;3.60;;;27.80;61.60;;;;;;220680;1268;24242;-49
2022/06/27 19:59:45;;;;;;;3.90;3.20;;;27.80;61.50;;;;;;220552;1267;25290;-48
2022/06/27 20:04:53;;;;;;;4.50;3.20;;;27.80;61.40;;;;;;220747;1268;24232;-51
2022/06/27 20:10:04;;;;;;;3.50;3.10;;;27.80;61.40;;;;;;220645;1268;25239;-50
2022/06/27 20:15:09;;;;;;;4.10;3.30;;;27.80;61.10;;;;;;220915;1268;24260;-50
2022/06/27 20:20:17;;;;;;;3.80;3.20;;;27.80;61.00;;;;;;220666;1269;25311;-49
2022/06/27 20:25:20;;;;;;;4.30;2.90;;;27.80;61.00;;;;;;220536;1268;25417;-48
2022/06/27 20:30:22;;;;;;;6.00;2.90;;;27.70;59.90;;;;;;220672;1268;22570;-49
2022/06/27 20:35:29;;;;;;;6.70;2.50;;;27.40;58.20;;;;;;220646;1268;24270;-49
2022/06/27 20:40:32;;;;;;;5.80;3.40;;;27.00;56.40;;;;;;220896;1265;22707;-51
2022/06/27 20:45:35;;;;;;;6.10;2.90;;;26.60;55.10;;;;;;220691;1265;22535;-48
2022/06/27 20:50:37;;;;;;;8.70;3.00;;;26.20;54.30;;;;;;220845;1268;23028;-48
2022/06/27 20:55:40;;;;;;;8.80;2.90;;;26.00;53.60;;;;;;220924;1268;22550;-52
2022/06/27 21:00:52;;;;;;;4.90;2.60;;;25.70;51.90;;;;;;220762;1265;24302;-51
2022/06/27 21:05:56;;;;;;;9.50;3.10;;;26.20;53.80;;;;;;220657;1267;22546;-47
2022/06/27 21:16:20;;;;;;;7.10;2.90;;;26.20;56.40;;;;;;220537;1268;22543;-54
2022/06/27 21:21:25;;;;;;;6.60;2.80;;;26.10;56.00;;;;;;220381;1268;22630;-54
2022/06/27 21:26:29;;;;;;;6.30;3.00;;;26.20;55.30;;;;;;220252;1268;22845;-51
2022/06/27 21:31:36;;;;;;;5.30;3.40;;;26.30;55.60;;;;;;220586;1268;22555;-49
2022/06/27 21:36:42;;;;;;;12.10;3.40;;;26.00;58.50;;;;;;220405;1265;25592;-49
2022/06/27 21:41:45;;;;;;;8.20;2.90;;;26.00;57.90;;;;;;220964;1268;22531;-49
2022/06/27 21:46:49;;;;;;;6.60;3.10;;;25.90;56.10;;;;;;220572;1268;22553;-52
2022/06/27 21:52:39;;;;;;;6.40;3.20;;;26.00;57.10;;;;;;220529;1265;24224;-53
2022/06/27 21:57:20;;;;;;;13.20;3.80;;;26.10;57.90;;;;;;220416;1268;24361;-50
2022/06/27 22:02:28;;;;;;;10.70;3.70;;;26.00;59.30;;;;;;220350;1268;23916;-51
2022/06/27 22:07:33;;;;;;;8.50;4.30;;;26.00;60.10;;;;;;220959;1268;22558;-50
2022/06/27 22:12:44;;;;;;;12.70;5.00;;;25.80;59.60;;;;;;220797;1269;26743;-51
2022/06/27 22:17:50;;;;;;;11.40;4.30;;;26.10;58.70;;;;;;220663;1268;24313;-53
2022/06/27 22:22:56;;;;;;;11.00;4.80;;;26.50;58.00;;;;;;220421;1268;25252;-48
2022/06/27 22:28:00;;;;;;;9.50;4.20;;;26.70;57.70;;;;;;220605;1265;24233;-53
2022/06/27 22:33:03;;;;;;;12.80;5.10;;;26.80;57.80;;;;;;220550;1265;22719;-53
2022/06/27 22:38:06;;;;;;;16.30;5.50;;;26.90;58.40;;;;;;221035;1268;22541;-50
2022/06/27 22:43:10;;;;;;;15.60;5.30;;;26.90;58.50;;;;;;220621;1265;23650;-49
2022/06/27 22:48:16;;;;;;;15.40;5.30;;;27.00;57.80;;;;;;220446;1265;22537;-54
2022/06/27 22:53:23;;;;;;;9.90;4.60;;;27.00;59.20;;;;;;220609;1268;24274;-49
2022/06/27 22:58:25;;;;;;;13.70;5.00;;;27.10;59.00;;;;;;220341;1268;24257;-54
2022/06/27 23:03:28;;;;;;;10.00;4.30;;;27.10;59.10;;;;;;220454;1270;24358;-52
2022/06/27 23:08:35;;;;;;;20.40;7.30;;;27.20;59.00;;;;;;220299;1270;22533;-52
2022/06/27 23:13:37;;;;;;;15.70;6.40;;;27.20;59.30;;;;;;220257;1268;22630;-51
2022/06/27 23:18:40;;;;;;;14.90;5.80;;;27.10;61.60;;;;;;220511;1268;24354;-50
2022/06/27 23:23:42;;;;;;;13.00;5.20;;;27.20;62.70;;;;;;220440;1268;22698;-50
2022/06/27 23:28:47;;;;;;;17.20;5.70;;;27.30;61.80;;;;;;220505;1268;22566;-51
2022/06/27 23:33:50;;;;;;;15.40;6.00;;;27.30;61.10;;;;;;220129;1268;22569;-48
2022/06/27 23:38:52;;;;;;;16.00;5.20;;;27.30;61.10;;;;;;219872;1268;22540;-51
2022/06/27 23:43:55;;;;;;;11.10;4.60;;;27.30;61.20;;;;;;219793;1265;22631;-49
2022/06/27 23:48:58;;;;;;;12.50;5.20;;;27.20;61.30;;;;;;220388;1268;24246;-50
2022/06/27 23:54:00;;;;;;;11.60;5.70;;;27.20;61.40;;;;;;220179;1269;22557;-48
2022/06/27 23:59:05;;;;;;;15.40;5.10;;;27.20;61.40;;;;;;225575;1266;23181;-48
